Time;durP1;ratioP1;P1;durP2;ratioP2;P2;SDS_P1;SDS_P2;PMS_P1;PMS_P2;Temp;Humidity;BMP_temperature;BMP_pressure;BME280_temperature;BME280_humidity;BME280_pressure;Samples;Min_cycle;Max_cycle;Signal;HPM_P1;HPM_P2
2021/11/03 00:01:57;;;;;;;;;20.50;18.25;;;;;9.35;76.03;98635.66;5039319;28;45215;-78
2021/11/03 00:04:22;;;;;;;;;23.50;19.75;;;;;9.38;75.80;98637.19;5039467;28;46143;-78
2021/11/03 00:06:48;;;;;;;;;22.75;19.25;;;;;9.38;76.15;98634.53;5038940;28;45163;-78
2021/11/03 00:09:13;;;;;;;;;19.50;18.75;;;;;9.36;75.71;98639.13;5039170;28;45255;-78
2021/11/03 00:11:39;;;;;;;;;21.75;20.25;;;;;9.30;75.83;98629.84;5039202;28;45244;-78
2021/11/03 00:14:05;;;;;;;;;22.00;17.75;;;;;9.31;76.27;98634.22;5039158;28;45216;-78
2021/11/03 00:16:31;;;;;;;;;20.25;18.75;;;;;9.28;76.26;98629.97;5038633;28;45973;-78
2021/11/03 00:18:56;;;;;;;;;20.50;17.75;;;;;9.24;76.22;98627.72;5038195;28;45180;-78
2021/11/03 00:21:21;;;;;;;;;22.25;18.50;;;;;9.22;76.08;98632.28;5039161;28;45204;-78
2021/11/03 00:23:47;;;;;;;;;20.25;18.75;;;;;9.18;76.10;98630.84;5038729;28;45240;-78
2021/11/03 00:26:12;;;;;;;;;18.00;15.50;;;;;9.15;76.23;98629.31;5038870;28;46266;-78
2021/11/03 00:28:38;;;;;;;;;15.75;15.50;;;;;9.15;76.07;98626.66;5020239;28;45264;-78
2021/11/03 00:31:03;;;;;;;;;22.00;19.25;;;;;9.11;76.86;98622.56;5038976;28;45250;-78
2021/11/03 00:33:31;;;;;;;;;18.75;18.75;;;;;9.08;76.61;98615.69;5019684;28;45350;-78
2021/11/03 00:35:58;;;;;;;;;19.50;17.75;;;;;9.08;76.25;98612.19;5038630;28;45630;-78
2021/11/03 00:38:24;;;;;;;;;19.25;17.75;;;;;9.12;76.56;98618.91;5038363;28;45725;-79
2021/11/03 00:40:50;;;;;;;;;16.25;15.50;;;;;9.12;76.60;98616.25;5038941;28;45191;-78
2021/11/03 00:43:16;;;;;;;;;17.25;17.25;;;;;9.14;76.46;98611.69;5038779;28;45285;-78
2021/11/03 00:45:42;;;;;;;;;23.25;17.25;;;;;9.11;76.68;98612.78;5038489;28;46340;-78
2021/11/03 00:48:07;;;;;;;;;18.00;15.50;;;;;9.18;77.16;98614.94;5038229;28;45254;-78
2021/11/03 00:50:34;;;;;;;;;17.00;14.00;;;;;9.23;76.65;98620.72;5038503;28;45275;-78
2021/11/03 00:52:59;;;;;;;;;18.00;18.00;;;;;9.23;76.51;98616.25;5038434;28;45247;-78
2021/11/03 00:55:24;;;;;;;;;18.75;16.75;;;;;9.24;76.68;98609.97;5037990;28;45888;-78
2021/11/03 00:57:50;;;;;;;;;18.75;16.00;;;;;9.28;76.54;98611.44;5036544;28;45251;-78
2021/11/03 01:00:18;;;;;;;;;17.25;17.00;;;;;9.32;77.07;98610.22;5036852;28;45204;-78
2021/11/03 01:02:44;;;;;;;;;18.25;15.25;;;;;9.35;76.44;98614.44;5038181;28;45397;-78
2021/11/03 01:05:12;;;;;;;;;22.00;17.25;;;;;9.35;76.57;98611.78;5037708;28;46123;-78
2021/11/03 01:07:37;;;;;;;;;16.00;14.75;;;;;9.36;76.75;98616.09;5037708;28;45235;-78
2021/11/03 01:10:07;;;;;;;;;17.75;17.00;;;;;9.36;76.40;98617.91;5037663;28;45246;-78
2021/11/03 01:12:33;;;;;;;;;23.75;18.25;;;;;9.35;76.48;98622.38;5038162;28;45181;-78
2021/11/03 01:14:59;;;;;;;;;15.75;15.75;;;;;9.36;76.36;98624.03;5038206;28;45167;-78
2021/11/03 01:17:24;;;;;;;;;16.33;15.67;;;;;9.35;76.75;98625.03;5037630;28;45320;-78
2021/11/03 01:19:49;;;;;;;;;17.00;15.25;;;;;9.33;76.25;98619.00;5037944;28;45230;-78
2021/11/03 01:22:15;;;;;;;;;19.00;15.25;;;;;9.35;76.68;98619.72;5038062;28;45326;-78
2021/11/03 01:24:40;;;;;;;;;18.25;16.50;;;;;9.38;76.36;98629.22;5037838;28;45191;-78
2021/11/03 01:27:05;;;;;;;;;15.50;14.75;;;;;9.32;76.44;98620.81;5036244;28;45996;-78
2021/11/03 01:29:31;;;;;;;;;15.50;15.25;;;;;9.35;76.49;98616.22;5037648;28;45572;-78
2021/11/03 01:31:56;;;;;;;;;19.50;17.75;;;;;9.34;76.12;98623.34;5037742;28;45187;-78
2021/11/03 01:34:21;;;;;;;;;17.00;17.00;;;;;9.31;76.64;98626.25;5037573;28;45260;-78
2021/11/03 01:36:47;;;;;;;;;20.00;17.50;;;;;9.33;76.16;98622.50;5037443;28;45104;-78
2021/11/03 01:39:12;;;;;;;;;14.75;13.50;;;;;9.34;76.58;98628.66;5037488;28;45310;-78
2021/11/03 01:41:38;;;;;;;;;15.25;14.75;;;;;9.35;76.46;98632.13;5037538;28;45228;-78
2021/11/03 01:44:16;;;;;;;;;20.75;18.00;;;;;9.33;76.18;98638.44;5037298;28;46065;-78
2021/11/03 01:46:50;;;;;;;;;19.25;16.25;;;;;9.35;76.19;98637.44;5036923;28;45180;-79
2021/11/03 01:49:21;;;;;;;;;20.50;16.75;;;;;9.26;76.37;98623.97;5019296;28;45144;-78
2021/11/03 01:51:50;;;;;;;;;22.75;18.75;;;;;9.33;76.23;98640.22;5037426;28;45273;-78
2021/11/03 01:54:25;;;;;;;;;19.00;15.00;;;;;9.32;76.18;98635.91;5037342;28;46332;-79
2021/11/03 01:56:52;;;;;;;;;26.00;18.25;;;;;9.31;76.59;98636.84;5037211;28;45754;-78
2021/11/03 01:59:33;;;;;;;;;18.50;14.75;;;;;9.30;76.23;98632.50;5037232;28;45104;-78
2021/11/03 02:02:00;;;;;;;;;18.75;16.00;;;;;9.28;76.57;98627.34;5037326;28;45242;-78
2021/11/03 02:04:26;;;;;;;;;20.75;17.25;;;;;9.29;76.44;98633.47;5036902;28;46734;-78
2021/11/03 02:06:54;;;;;;;;;18.50;17.25;;;;;9.25;76.15;98621.41;5037150;28;45113;-78
2021/11/03 02:09:19;;;;;;;;;16.50;16.00;;;;;9.26;76.20;98628.41;5037133;28;45231;-78
2021/11/03 02:11:45;;;;;;;;;20.33;19.00;;;;;9.21;76.16;98623.50;5037136;28;45214;-79
2021/11/03 02:14:10;;;;;;;;;20.00;17.75;;;;;9.23;76.11;98640.09;5037116;28;45211;-78
2021/11/03 02:16:40;;;;;;;;;22.75;18.25;;;;;9.21;76.45;98636.75;5037247;28;45568;-79
2021/11/03 02:19:13;;;;;;;;;18.25;16.50;;;;;9.20;76.52;98640.38;5037025;28;45277;-78
2021/11/03 02:21:47;;;;;;;;;20.50;17.75;;;;;9.13;76.56;98629.41;5037295;28;45263;-78
2021/11/03 02:24:22;;;;;;;;;21.50;17.75;;;;;9.17;76.47;98637.97;5037034;28;46224;-78
2021/11/03 02:26:49;;;;;;;;;18.50;16.25;;;;;9.10;76.54;98623.50;5036802;28;45833;-79
2021/11/03 02:29:19;;;;;;;;;17.50;16.50;;;;;9.17;76.33;98640.63;5036801;28;45281;-78
2021/11/03 02:31:50;;;;;;;;;16.50;15.75;;;;;9.11;76.46;98626.03;5037009;28;45170;-78
2021/11/03 02:34:27;;;;;;;;;17.75;17.75;;;;;9.13;76.71;98640.00;5036655;28;45179;-78
2021/11/03 02:37:03;;;;;;;;;19.00;16.00;;;;;9.12;76.59;98635.69;5036649;28;45733;-78
2021/11/03 02:39:35;;;;;;;;;16.50;15.75;;;;;9.10;76.56;98634.94;5036764;28;45207;-78
2021/11/03 02:42:02;;;;;;;;;17.50;15.25;;;;;9.12;76.84;98637.47;5037054;28;45298;-78
2021/11/03 02:44:30;;;;;;;;;17.50;16.25;;;;;9.11;76.47;98635.81;5036754;28;45959;-79
2021/11/03 02:46:56;;;;;;;;;18.75;17.50;;;;;9.06;76.69;98632.69;5036725;28;45666;-79
2021/11/03 02:49:21;;;;;;;;;18.00;17.25;;;;;9.09;76.66;98643.88;5035205;28;45292;-79
2021/11/03 02:51:46;;;;;;;;;18.50;14.00;;;;;9.09;76.73;98645.69;5036461;28;45220;-79
2021/11/03 02:54:16;;;;;;;;;15.00;15.00;;;;;9.08;76.83;98638.72;5036529;28;45290;-77
2021/11/03 02:56:47;;;;;;;;;16.25;14.25;;;;;9.06;76.87;98637.97;5035443;28;45698;-77
2021/11/03 02:59:13;;;;;;;;;16.75;16.00;;;;;9.03;76.49;98640.88;5018253;28;45167;-77
2021/11/03 03:01:43;;;;;;;;;17.00;14.75;;;;;9.02;76.29;98637.41;5036666;28;45311;-78
2021/11/03 03:04:22;;;;;;;;;14.75;14.75;;;;;8.95;76.81;98633.50;5036565;28;45510;-78
2021/11/03 03:06:48;;;;;;;;;16.50;14.00;;;;;8.97;77.22;98648.34;5036295;28;45205;-77
2021/11/03 03:09:14;;;;;;;;;16.25;13.50;;;;;9.00;77.04;98641.97;5036507;28;45242;-78
2021/11/03 03:11:42;;;;;;;;;12.50;12.00;;;;;8.98;77.13;98650.03;5036567;28;45194;-78
2021/11/03 03:14:09;;;;;;;;;17.50;13.75;;;;;8.97;77.04;98652.81;5034750;28;47631;-78
2021/11/03 03:16:35;;;;;;;;;13.00;11.50;;;;;8.97;76.75;98644.84;5018383;28;45205;-78
2021/11/03 03:19:01;;;;;;;;;15.25;12.75;;;;;8.96;77.17;98646.69;5036653;28;45255;-78
2021/11/03 03:21:27;;;;;;;;;13.00;12.75;;;;;8.96;76.90;98651.09;5036331;28;45324;-78
2021/11/03 03:23:54;;;;;;;;;12.50;11.75;;;;;8.95;77.16;98655.59;5036349;28;45255;-78
2021/11/03 03:26:21;;;;;;;;;12.00;12.00;;;;;8.86;76.94;98636.91;5036799;28;45235;-78
2021/11/03 03:28:47;;;;;;;;;13.50;12.75;;;;;8.97;77.14;98655.47;5036294;28;45243;-78
2021/11/03 03:31:14;;;;;;;;;9.75;9.50;;;;;8.95;77.18;98655.59;5036374;28;45297;-78
2021/11/03 03:33:41;;;;;;;;;10.00;9.50;;;;;8.95;76.87;98662.66;5036369;28;46492;-78
2021/11/03 03:36:07;;;;;;;;;13.75;12.50;;;;;8.86;77.00;98647.50;5036266;28;45236;-78
2021/11/03 03:38:32;;;;;;;;;11.25;10.25;;;;;8.90;77.43;98664.84;5036468;28;45236;-78
2021/11/03 03:40:59;;;;;;;;;12.50;11.75;;;;;8.91;77.54;98671.84;5036550;28;45172;-78
2021/11/03 03:43:25;;;;;;;;;17.50;12.50;;;;;8.87;77.33;98667.75;5036090;28;46401;-78
2021/11/03 03:45:50;;;;;;;;;11.00;8.00;;;;;8.89;77.47;98674.63;5036180;28;45272;-78
2021/11/03 03:48:15;;;;;;;;;11.00;11.00;;;;;8.89;77.22;98673.75;5036330;28;45243;-78
2021/11/03 03:50:41;;;;;;;;;10.75;10.00;;;;;8.90;77.50;98683.41;5036777;28;45211;-78
2021/11/03 03:53:07;;;;;;;;;14.50;12.00;;;;;8.90;77.74;98676.28;5036157;28;45163;-78
2021/11/03 03:55:32;;;;;;;;;13.00;12.25;;;;;8.89;77.19;98668.47;5035943;28;45205;-78
2021/11/03 03:57:58;;;;;;;;;13.75;12.00;;;;;8.88;77.20;98675.59;5036013;28;45199;-78
2021/11/03 04:00:24;;;;;;;;;16.50;12.25;;;;;8.88;77.57;98678.22;5035771;28;45220;-78
2021/11/03 04:02:52;;;;;;;;;11.25;11.00;;;;;8.85;77.35;98682.91;5035510;28;46035;-78
2021/11/03 04:05:21;;;;;;;;;14.00;10.50;;;;;8.83;77.49;98683.03;5035782;28;45218;-78
2021/11/03 04:07:46;;;;;;;;;12.75;10.75;;;;;8.80;77.65;98675.34;5036247;28;45244;-79
2021/11/03 04:10:13;;;;;;;;;14.25;13.25;;;;;8.81;77.62;98684.97;5038052;28;45235;-78
2021/11/03 04:12:39;;;;;;;;;10.75;10.75;;;;;8.81;77.52;98691.13;5039172;28;46451;-78
2021/11/03 04:15:06;;;;;;;;;14.25;13.00;;;;;8.75;77.68;98680.13;5021424;28;45133;-78
2021/11/03 04:17:31;;;;;;;;;14.50;12.75;;;;;8.79;78.15;98687.75;5039446;28;45192;-78
2021/11/03 04:19:56;;;;;;;;;16.50;12.00;;;;;8.79;77.86;98693.06;5039204;28;45261;-78
2021/11/03 04:22:22;;;;;;;;;14.25;12.25;;;;;8.76;77.59;98687.97;5039265;28;45290;-78
2021/11/03 04:24:47;;;;;;;;;14.00;13.75;;;;;8.78;77.89;98698.47;5039169;28;45164;-77
2021/11/03 04:27:12;;;;;;;;;10.25;9.75;;;;;8.77;77.71;98694.97;5039253;28;45234;-78
2021/11/03 04:29:38;;;;;;;;;13.00;13.00;;;;;8.72;77.56;98694.50;5039795;28;45218;-78
2021/11/03 04:32:03;;;;;;;;;11.25;8.75;;;;;8.73;78.17;98705.91;5039049;28;45369;-77
2021/11/03 04:34:29;;;;;;;;;14.50;11.75;;;;;8.73;77.81;98712.06;5039380;28;45882;-78
2021/11/03 04:36:54;;;;;;;;;14.00;12.25;;;;;8.73;78.15;98717.34;5039285;28;45218;-77
2021/11/03 04:39:20;;;;;;;;;12.00;10.50;;;;;8.67;77.94;98706.41;5038964;28;45226;-77
2021/11/03 04:41:46;;;;;;;;;13.00;11.75;;;;;8.70;77.88;98709.66;5038165;28;45249;-78
2021/11/03 04:44:12;;;;;;;;;14.25;13.25;;;;;8.72;77.93;98715.69;5038447;28;45141;-78
2021/11/03 04:46:38;;;;;;;;;14.25;13.75;;;;;8.71;77.81;98707.84;5038256;28;45289;-78
2021/11/03 04:49:04;;;;;;;;;14.25;12.50;;;;;8.70;78.01;98717.59;5038874;28;45231;-77
2021/11/03 04:51:29;;;;;;;;;14.75;13.00;;;;;8.68;77.85;98713.38;5038049;28;45812;-77
2021/11/03 04:53:54;;;;;;;;;12.50;11.00;;;;;8.65;78.10;98701.22;5038525;28;45133;-78
2021/11/03 04:56:22;;;;;;;;;12.25;12.25;;;;;8.71;78.13;98715.81;5038764;28;45194;-78
2021/11/03 04:58:51;;;;;;;;;14.50;13.50;;;;;8.72;78.12;98720.13;5038395;28;45230;-78
2021/11/03 05:01:20;;;;;;;;;15.00;15.00;;;;;8.72;77.94;98717.47;5038175;28;46463;-78
2021/11/03 05:03:45;;;;;;;;;15.50;14.00;;;;;8.68;77.91;98714.22;5019955;28;46049;-78
2021/11/03 05:06:12;;;;;;;;;15.00;14.00;;;;;8.72;78.18;98726.28;5037313;28;45180;-78
2021/11/03 05:08:37;;;;;;;;;13.00;12.75;;;;;8.68;78.09;98719.53;5038277;28;45253;-78
2021/11/03 05:11:02;;;;;;;;;15.00;13.75;;;;;8.67;78.29;98719.66;5038040;28;45178;-78
2021/11/03 05:13:28;;;;;;;;;16.00;14.50;;;;;8.72;77.85;98731.59;5037969;28;45242;-78
2021/11/03 05:15:53;;;;;;;;;12.75;12.75;;;;;8.71;77.96;98726.41;5038377;28;45251;-78
2021/11/03 05:18:18;;;;;;;;;17.00;15.00;;;;;8.70;78.33;98730.00;5038099;28;45258;-79
2021/11/03 05:20:44;;;;;;;;;12.25;12.25;;;;;8.70;78.32;98736.13;5037549;28;45311;-79
2021/11/03 05:23:10;;;;;;;;;16.00;15.75;;;;;8.70;78.42;98727.34;5037894;28;45289;-79
2021/11/03 05:25:35;;;;;;;;;21.00;17.00;;;;;8.69;78.48;98729.16;5038478;28;45208;-79
2021/11/03 05:28:01;;;;;;;;;16.25;15.00;;;;;8.69;77.90;98737.09;5038160;28;45262;-79
2021/11/03 05:30:28;;;;;;;;;20.25;16.50;;;;;8.68;78.06;98729.25;5037734;28;46648;-79
2021/11/03 05:32:55;;;;;;;;;16.25;14.00;;;;;8.69;78.16;98741.56;5037742;28;45666;-79
2021/11/03 05:35:20;;;;;;;;;22.00;17.25;;;;;8.68;78.36;98737.22;5038226;28;45343;-79
2021/11/03 05:37:46;;;;;;;;;18.00;16.50;;;;;8.68;78.44;98745.16;5037768;28;45583;-79
2021/11/03 05:40:16;;;;;;;;;16.50;15.75;;;;;8.69;78.01;98744.22;5037710;28;45243;-79
2021/11/03 05:42:42;;;;;;;;;20.25;17.75;;;;;8.66;78.49;98739.97;5037708;28;45296;-79
2021/11/03 05:45:08;;;;;;;;;19.50;15.50;;;;;8.68;78.55;98743.38;5038067;28;45258;-79
2021/11/03 05:47:34;;;;;;;;;17.25;16.00;;;;;8.67;78.66;98739.03;5019729;28;45392;-79
2021/11/03 05:50:00;;;;;;;;;20.25;16.25;;;;;8.66;78.70;98741.81;5037736;28;45259;-79
2021/11/03 05:52:26;;;;;;;;;17.50;17.25;;;;;8.69;78.76;98747.69;5019005;28;45957;-79
2021/11/03 05:54:52;;;;;;;;;17.25;14.75;;;;;8.69;78.71;98749.50;5037938;28;45206;-79
2021/11/03 05:57:26;;;;;;;;;20.00;16.00;;;;;8.69;78.36;98749.50;5035964;28;45202;-79
2021/11/03 05:59:52;;;;;;;;;16.75;16.50;;;;;8.69;78.57;98754.81;5037729;28;46098;-79
2021/11/03 06:02:19;;;;;;;;;19.00;15.75;;;;;8.68;78.72;98750.47;5036949;28;45278;-79
2021/11/03 06:04:45;;;;;;;;;16.75;15.25;;;;;8.68;78.61;98746.03;5036982;28;45194;-79
2021/11/03 06:07:12;;;;;;;;;20.75;13.75;;;;;8.66;78.37;98752.41;5035948;28;45204;-79
2021/11/03 06:09:39;;;;;;;;;18.25;16.75;;;;;8.57;78.45;98735.41;5037120;28;45325;-79
2021/11/03 06:12:04;;;;;;;;;17.25;16.25;;;;;8.67;78.79;98754.09;5018550;28;45318;-79
2021/11/03 06:14:30;;;;;;;;;19.25;17.00;;;;;8.59;78.40;98747.56;5037224;28;45156;-79
2021/11/03 06:16:55;;;;;;;;;22.00;17.50;;;;;8.64;78.83;98749.88;5037361;28;45297;-79
2021/11/03 06:19:20;;;;;;;;;17.00;15.00;;;;;8.69;79.01;98755.63;5036712;28;46079;-79
2021/11/03 06:21:46;;;;;;;;;23.00;18.50;;;;;8.70;78.89;98753.84;5036863;28;45313;-79
2021/11/03 06:24:11;;;;;;;;;18.75;17.00;;;;;8.75;78.22;98757.84;5035692;28;45176;-78
2021/11/03 06:26:36;;;;;;;;;19.25;13.75;;;;;8.80;78.94;98768.91;5036849;28;45168;-78
2021/11/03 06:29:02;;;;;;;;;19.25;18.50;;;;;8.74;78.26;98755.31;5036766;28;45420;-79
2021/11/03 06:31:28;;;;;;;;;19.25;18.25;;;;;8.83;78.26;98775.78;5035494;28;45259;-79
2021/11/03 06:33:54;;;;;;;;;16.50;15.00;;;;;8.84;77.92;98779.31;5036476;28;45286;-79
2021/11/03 06:36:20;;;;;;;;;18.25;16.50;;;;;8.81;78.09;98778.56;5036867;28;45308;-78
2021/11/03 06:38:46;;;;;;;;;22.75;17.75;;;;;8.82;78.06;98776.75;5036247;28;45387;-79
2021/11/03 06:41:11;;;;;;;;;18.25;15.75;;;;;8.81;78.27;98778.56;5036313;28;45814;-79
2021/11/03 06:43:38;;;;;;;;;15.50;15.25;;;;;8.85;78.11;98792.44;5035138;28;45261;-79
2021/11/03 06:46:03;;;;;;;;;21.50;18.25;;;;;8.84;78.01;98789.91;5036798;28;45202;-79
2021/11/03 06:48:29;;;;;;;;;21.00;17.00;;;;;8.86;77.69;98795.91;5035923;28;45983;-79
2021/11/03 06:50:54;;;;;;;;;20.25;16.75;;;;;8.83;78.10;98796.16;5036434;28;45142;-79
2021/11/03 06:53:22;;;;;;;;;19.00;17.00;;;;;8.85;77.81;98795.09;5036273;28;45199;-79
2021/11/03 06:55:48;;;;;;;;;15.25;13.00;;;;;8.88;77.85;98817.84;5036474;28;45328;-79
2021/11/03 06:58:14;;;;;;;;;22.75;18.25;;;;;8.87;77.79;98817.00;5036364;28;45308;-79
2021/11/03 07:00:43;;;;;;;;;16.00;14.25;;;;;8.86;77.58;98812.66;5036147;28;45207;-79
2021/11/03 07:03:09;;;;;;;;;18.50;17.00;;;;;8.82;77.69;98816.50;5036305;28;45151;-79
2021/11/03 07:05:36;;;;;;;;;19.25;17.50;;;;;8.86;77.34;98822.44;5036227;28;45239;-79
2021/11/03 07:08:03;;;;;;;;;17.25;15.25;;;;;8.83;78.00;98828.78;5036399;28;45301;-79
2021/11/03 07:10:34;;;;;;;;;18.00;15.25;;;;;8.84;77.69;98837.63;5036360;28;45274;-79
2021/11/03 07:13:00;;;;;;;;;22.75;16.25;;;;;8.83;78.10;98842.03;5036750;28;45158;-79
2021/11/03 07:15:26;;;;;;;;;16.25;16.25;;;;;8.81;77.34;98843.97;5036885;28;45189;-79
2021/11/03 07:17:54;;;;;;;;;15.00;15.00;;;;;8.81;77.51;98846.63;5035834;28;45316;-79
2021/11/03 07:20:20;;;;;;;;;18.50;15.50;;;;;8.78;77.06;98855.66;5034890;28;45242;-79
2021/11/03 07:22:45;;;;;;;;;16.00;16.00;;;;;8.73;77.51;98855.13;5017625;28;45239;-79
2021/11/03 07:25:13;;;;;;;;;15.25;15.00;;;;;8.70;77.34;98860.66;5036541;28;45287;-79
2021/11/03 07:27:38;;;;;;;;;19.00;16.00;;;;;8.61;77.68;98856.06;5036140;28;45930;-79
2021/11/03 07:30:06;;;;;;;;;16.50;15.50;;;;;8.64;77.57;98871.75;5036375;28;45354;-79
2021/11/03 07:32:31;;;;;;;;;16.75;16.75;;;;;8.61;77.58;98874.63;5035957;28;45271;-79
2021/11/03 07:34:57;;;;;;;;;17.00;15.75;;;;;8.50;77.84;98861.31;5036371;28;45236;-79
2021/11/03 07:37:22;;;;;;;;;19.25;16.75;;;;;8.53;77.83;98874.34;5035735;28;45296;-79
2021/11/03 07:39:47;;;;;;;;;14.00;13.75;;;;;8.53;77.53;98879.63;5036239;28;45246;-79
2021/11/03 07:42:13;;;;;;;;;17.25;15.25;;;;;8.51;77.67;98881.53;5036168;28;45333;-79
2021/11/03 07:44:38;;;;;;;;;13.50;13.50;;;;;8.48;77.61;98887.06;5039018;28;45231;-79
2021/11/03 07:47:04;;;;;;;;;17.25;16.25;;;;;8.46;77.42;98893.34;5039845;28;45170;-79
2021/11/03 07:49:30;;;;;;;;;18.50;16.50;;;;;8.48;77.63;98897.66;5039439;28;45281;-79
2021/11/03 07:51:56;;;;;;;;;15.50;14.00;;;;;8.51;78.24;98900.06;5039449;28;45222;-79
2021/11/03 07:54:22;;;;;;;;;17.25;17.25;;;;;8.54;77.75;98903.34;5039571;28;45243;-78
2021/11/03 07:56:47;;;;;;;;;20.25;14.50;;;;;8.58;77.73;98903.97;5039257;28;45323;-78
2021/11/03 07:59:16;;;;;;;;;17.25;17.25;;;;;8.64;77.82;98904.38;5039219;28;45233;-78
2021/11/03 08:01:42;;;;;;;;;16.75;15.00;;;;;8.70;77.77;98915.47;5038891;28;45242;-78
2021/11/03 08:04:08;;;;;;;;;14.00;14.00;;;;;8.67;77.89;98895.34;5038975;28;45241;-79
2021/11/03 08:06:34;;;;;;;;;19.00;16.00;;;;;8.80;77.65;98914.66;5038783;28;46214;-78
2021/11/03 08:09:03;;;;;;;;;14.00;14.00;;;;;8.83;77.66;98912.78;5039137;28;45261;-78
2021/11/03 08:11:45;;;;;;;;;15.00;15.00;;;;;8.83;77.46;98913.59;5038990;28;45210;-78
2021/11/03 08:14:10;;;;;;;;;14.75;14.75;;;;;8.86;77.46;98910.72;5038888;28;45237;-79
2021/11/03 08:16:58;;;;;;;;;18.75;17.25;;;;;8.91;77.18;98928.94;5038725;28;45253;-78
2021/11/03 08:19:29;;;;;;;;;13.75;13.75;;;;;8.93;77.37;98924.38;5029037;28;45665;-78
2021/11/03 08:21:55;;;;;;;;;18.25;15.75;;;;;8.94;77.40;98929.56;5038594;28;45233;-78
2021/11/03 08:24:20;;;;;;;;;21.50;15.75;;;;;8.95;77.68;98935.69;5038545;28;45232;-78
2021/11/03 08:26:51;;;;;;;;;17.00;16.50;;;;;8.98;77.09;98938.13;5038466;28;46517;-78
2021/11/03 08:29:17;;;;;;;;;17.50;15.50;;;;;8.95;77.17;98936.56;5038533;28;45257;-78
2021/11/03 08:31:42;;;;;;;;;15.00;14.25;;;;;9.00;76.94;98940.66;5019795;28;45200;-79
2021/11/03 08:34:09;;;;;;;;;16.25;16.00;;;;;9.00;77.39;98944.16;5038342;28;45259;-78
2021/11/03 08:36:34;;;;;;;;;16.75;14.25;;;;;9.01;77.16;98948.50;5038221;28;45376;-79
2021/11/03 08:39:01;;;;;;;;;17.75;15.75;;;;;9.01;77.04;98943.19;5037820;28;45299;-78
2021/11/03 08:41:27;;;;;;;;;16.75;14.50;;;;;9.03;77.25;98943.91;5038455;28;45222;-78
2021/11/03 08:43:53;;;;;;;;;17.00;14.00;;;;;9.10;77.28;98942.50;5037791;28;45201;-77
2021/11/03 08:46:19;;;;;;;;;21.25;16.50;;;;;9.14;76.98;98954.56;5019866;28;46852;-77
2021/11/03 08:48:45;;;;;;;;;14.50;14.00;;;;;9.16;77.06;98946.50;5037874;28;45773;-78
2021/11/03 08:51:10;;;;;;;;;16.25;15.00;;;;;9.19;76.71;98954.22;5038460;28;45206;-77
2021/11/03 08:53:35;;;;;;;;;17.75;15.50;;;;;9.20;77.04;98950.63;5038436;28;45120;-77
2021/11/03 08:56:01;;;;;;;;;15.75;15.75;;;;;9.17;76.65;98942.06;5037475;28;45253;-79
2021/11/03 08:58:28;;;;;;;;;19.00;15.00;;;;;9.22;76.86;98956.66;5038148;28;45365;-78
2021/11/03 09:00:55;;;;;;;;;16.75;15.00;;;;;9.19;76.78;98950.72;5038594;28;45257;-79
2021/11/03 09:03:21;;;;;;;;;17.00;14.50;;;;;9.19;76.33;98951.56;5037648;28;45266;-78
2021/11/03 09:05:47;;;;;;;;;17.00;13.50;;;;;9.23;76.81;98960.16;5037602;28;45227;-79
2021/11/03 09:08:15;;;;;;;;;17.25;15.25;;;;;9.24;76.94;98965.34;5038189;28;45360;-78
2021/11/03 09:10:47;;;;;;;;;18.50;16.25;;;;;9.24;76.85;98960.03;5038079;28;45213;-78
2021/11/03 09:13:23;;;;;;;;;18.50;16.00;;;;;9.27;77.39;98966.91;5037919;28;45319;-78
2021/11/03 09:15:50;;;;;;;;;16.00;16.00;;;;;9.32;77.04;98965.63;5037846;28;45525;-78
2021/11/03 09:18:16;;;;;;;;;20.00;14.75;;;;;9.33;77.31;98971.75;5037402;28;45496;-79
2021/11/03 09:20:45;;;;;;;;;17.00;16.25;;;;;9.38;76.81;98974.91;5038301;28;45329;-78
2021/11/03 09:23:11;;;;;;;;;17.25;16.50;;;;;9.43;77.04;98982.50;5038236;28;45418;-78
2021/11/03 09:25:37;;;;;;;;;14.75;14.00;;;;;9.52;77.44;98988.91;5036853;28;47858;-78
2021/11/03 09:28:03;;;;;;;;;14.75;14.00;;;;;9.55;77.05;98981.59;5037766;28;45205;-77
2021/11/03 09:30:29;;;;;;;;;19.00;15.00;;;;;9.65;76.96;98997.66;5037886;28;45254;-78
2021/11/03 09:32:58;;;;;;;;;14.25;12.75;;;;;9.73;76.93;98999.72;5019730;28;45334;-78
2021/11/03 09:35:26;;;;;;;;;14.00;12.75;;;;;9.90;77.21;99001.91;5037773;28;46542;-78
2021/11/03 09:37:52;;;;;;;;;19.50;13.50;;;;;10.03;76.54;98999.13;5036990;28;45195;-78
2021/11/03 09:40:27;;;;;;;;;15.50;12.50;;;;;10.12;76.14;99003.75;5037193;28;45255;-78
2021/11/03 09:42:55;;;;;;;;;12.75;12.75;;;;;10.22;76.30;99003.00;5037393;28;45215;-78
2021/11/03 09:45:34;;;;;;;;;13.75;13.75;;;;;10.29;75.51;99005.09;5036885;28;47236;-77
2021/11/03 09:48:05;;;;;;;;;16.50;14.00;;;;;10.36;76.17;99005.44;5037105;28;45647;-78
2021/11/03 09:50:39;;;;;;;;;13.25;12.00;;;;;10.45;75.31;99006.56;5037305;28;45534;-78
2021/11/03 09:53:21;;;;;;;;;19.25;15.25;;;;;10.47;74.57;99000.13;5037235;28;45128;-78
2021/11/03 09:55:46;;;;;;;;;13.25;11.75;;;;;10.53;75.42;99004.97;5037021;28;45286;-78
2021/11/03 09:58:26;;;;;;;;;15.25;14.00;;;;;10.66;75.43;99003.97;5036763;28;45299;-78
2021/11/03 10:01:03;;;;;;;;;13.00;12.00;;;;;10.82;74.93;99008.91;5036776;28;45208;-78
2021/11/03 10:03:40;;;;;;;;;13.75;12.25;;;;;11.00;74.53;99009.22;5036689;28;45255;-78
2021/11/03 10:06:13;;;;;;;;;17.50;11.00;;;;;11.27;74.51;99013.25;5036536;28;45465;-78
2021/11/03 10:08:46;;;;;;;;;17.00;12.50;;;;;11.55;73.66;99009.94;5036737;28;45198;-78
2021/11/03 10:11:25;;;;;;;;;12.50;10.50;;;;;11.88;72.91;99024.03;5037163;28;45294;-78
2021/11/03 10:13:53;;;;;;;;;13.00;12.00;;;;;12.15;72.45;99019.19;5036736;28;45144;-78
2021/11/03 10:16:18;;;;;;;;;13.75;12.75;;;;;12.40;71.97;99021.41;5036848;28;45229;-78
2021/11/03 10:19:07;;;;;;;;;13.00;11.00;;;;;12.76;71.56;99027.13;5036756;28;45200;-78
2021/11/03 10:22:00;;;;;;;;;10.00;7.75;;;;;13.17;71.66;99021.72;5036969;28;45182;-78
2021/11/03 10:24:37;;;;;;;;;10.75;8.75;;;;;13.56;69.58;99027.09;5035542;28;45398;-78
2021/11/03 10:27:08;;;;;;;;;11.75;9.00;;;;;13.94;68.70;99016.53;5018383;28;46235;-77
2021/11/03 10:29:50;;;;;;;;;8.00;8.00;;;;;14.26;67.70;99023.31;5037048;28;45600;-76
2021/11/03 10:32:26;;;;;;;;;11.75;9.75;;;;;14.60;67.45;99028.09;5036784;28;45277;-76
2021/11/03 10:35:03;;;;;;;;;9.50;8.75;;;;;14.91;66.52;99028.66;5036992;28;45480;-76
2021/11/03 10:37:40;;;;;;;;;10.50;8.50;;;;;15.23;66.60;99026.47;5035165;28;47192;-76
2021/11/03 10:40:23;;;;;;;;;6.50;6.50;;;;;15.54;65.36;99033.13;5036686;28;45535;-76
2021/11/03 10:42:53;;;;;;;;;12.25;9.25;;;;;15.79;64.46;99035.19;5036819;28;45290;-76
2021/11/03 10:45:26;;;;;;;;;9.00;7.00;;;;;16.01;63.12;99039.22;5036989;28;45222;-76
2021/11/03 10:48:10;;;;;;;;;7.75;7.50;;;;;16.04;62.88;99041.59;5036317;28;45986;-76
2021/11/03 10:50:41;;;;;;;;;8.75;7.25;;;;;16.05;63.21;99040.59;5036518;28;45485;-76
2021/11/03 10:53:17;;;;;;;;;6.50;6.50;;;;;16.18;63.03;99037.50;5036050;28;45235;-75
2021/11/03 10:55:56;;;;;;;;;6.50;5.75;;;;;16.31;62.31;99031.69;5035010;28;45263;-76
2021/11/03 10:58:30;;;;;;;;;6.00;4.25;;;;;16.47;61.70;99022.88;5035860;28;45332;-76
2021/11/03 11:01:10;;;;;;;;;5.00;5.00;;;;;16.65;62.29;99036.22;5036182;28;45299;-76
2021/11/03 11:03:58;;;;;;;;;4.50;4.50;;;;;16.90;60.83;99027.28;5017836;28;45280;-76
2021/11/03 11:06:44;;;;;;;;;3.50;3.50;;;;;17.07;60.73;99038.06;5036279;28;45156;-76
2021/11/03 11:09:09;;;;;;;;;7.00;6.00;;;;;17.20;59.68;99032.22;5035712;28;46418;-76
2021/11/03 11:11:37;;;;;;;;;5.00;5.00;;;;;17.29;60.25;99031.25;5017684;28;45194;-76
2021/11/03 11:14:10;;;;;;;;;6.00;4.25;;;;;17.44;59.71;99034.09;5035976;28;45262;-76
2021/11/03 11:17:23;;;;;;;;;5.50;5.50;;;;;17.60;58.77;99042.19;5036099;28;45234;-76
2021/11/03 11:20:10;;;;;;;;;7.50;5.75;;;;;17.55;58.60;99039.16;4941453;28;45850;-77
2021/11/03 11:23:15;;;;;;;;;6.75;5.25;;;;;17.34;58.43;99033.41;4941745;28;45525;-76
2021/11/03 11:26:08;;;;;;;;;5.75;5.00;;;;;17.18;59.30;99043.13;4941705;28;45148;-76
2021/11/03 11:28:33;;;;;;;;;4.00;4.00;;;;;17.13;57.55;99031.19;4941545;28;45331;-76
2021/11/03 11:31:16;;;;;;;;;5.00;5.00;;;;;17.10;57.98;99031.53;4941720;28;46037;-76
2021/11/03 11:34:10;;;;;;;;;5.50;5.00;;;;;17.18;58.27;99036.91;4941362;28;45510;-76